METAR

EDDW 031520Z 08015KT 9999 FEW060CB 23/10 Q1001 NOSIG

Location

EDDW
Bremen Airport

Time

031520Z
3rd of the Month
15:20 Zulu / UTC
6 minutes ago

Wind

08015KT
Wind Direction 80°
East
Wind Speed 15 knots

Visibility

9999
10 km or more

Clouds

FEW060CB
Few Clouds (1828) at 6000 ft Cumulonimbus

Temperature

23/10
Temperature 23 °C
Dew Point 10 °C

Air Pressure

Q1001
1001 hPa

Trend

NOSIG
No significant change